createdAt,value
2017-12-23T00:00:58.867Z,40.44
2017-12-23T00:03:27.153Z,48.78
2017-12-23T00:05:55.436Z,46.44
2017-12-23T00:08:23.685Z,38.48
2017-12-23T00:10:51.964Z,46.36
2017-12-23T00:13:20.210Z,48.92
2017-12-23T00:15:48.486Z,43.44
2017-12-23T00:18:16.756Z,44.98
2017-12-23T00:20:44.278Z,59.44
2017-12-23T00:23:12.526Z,46.32
2017-12-23T00:25:40.803Z,48.14
2017-12-23T00:28:09.046Z,50.10
2017-12-23T00:30:37.330Z,51.74
2017-12-23T00:33:05.573Z,52.06
2017-12-23T00:35:33.821Z,53.18
2017-12-23T00:38:02.938Z,39.52
2017-12-23T00:40:34.797Z,54.66
2017-12-23T00:43:04.242Z,53.18
2017-12-23T00:45:33.959Z,50.38
2017-12-23T00:48:02.278Z,63.40
2017-12-23T00:50:31.439Z,58.30
2017-12-23T00:52:59.718Z,58.06
2017-12-23T00:55:27.962Z,49.54
2017-12-23T00:57:56.252Z,57.80
2017-12-23T01:00:24.520Z,62.78
2017-12-23T01:02:52.771Z,54.04
2017-12-23T01:05:21.040Z,53.72
2017-12-23T01:07:49.329Z,48.28
2017-12-23T01:10:17.573Z,50.12
2017-12-23T01:12:45.862Z,48.08
2017-12-23T01:15:14.110Z,49.92
2017-12-23T01:17:42.349Z,44.18
2017-12-23T01:20:10.639Z,45.68
2017-12-23T01:22:38.917Z,44.10
2017-12-23T01:25:07.201Z,44.18
2017-12-23T01:27:35.485Z,49.78
2017-12-23T01:30:03.742Z,37.68
2017-12-23T01:32:33.260Z,48.92
2017-12-23T01:35:02.727Z,43.38
2017-12-23T01:37:30.979Z,41.10
2017-12-23T01:40:00.159Z,38.38
2017-12-23T01:42:28.415Z,43.06
2017-12-23T01:44:56.674Z,39.80
2017-12-23T01:47:24.953Z,30.64
2017-12-23T01:49:53.198Z,29.92
2017-12-23T01:52:21.442Z,34.98
2017-12-23T01:54:49.736Z,34.92
2017-12-23T01:57:17.987Z,32.08
2017-12-23T01:59:46.250Z,30.22
2017-12-23T02:02:14.538Z,34.86
2017-12-23T02:04:42.784Z,37.02
2017-12-23T02:07:11.034Z,26.50
2017-12-23T02:09:39.321Z,35.24
2017-12-23T02:12:07.583Z,30.38
2017-12-23T02:14:35.834Z,22.58
2017-12-23T02:17:04.099Z,25.48
2017-12-23T02:19:32.344Z,24.82
2017-12-23T02:22:00.636Z,30.06
2017-12-23T02:24:28.874Z,29.74
2017-12-23T02:26:57.126Z,25.72
2017-12-23T02:29:25.398Z,28.58
2017-12-23T02:31:53.674Z,21.88
2017-12-23T02:34:27.752Z,26.16
2017-12-23T02:36:56.035Z,26.18
2017-12-23T02:39:24.301Z,25.36
2017-12-23T02:41:52.585Z,30.30
2017-12-23T02:44:20.876Z,31.50
2017-12-23T02:46:49.136Z,31.78
2017-12-23T02:49:17.406Z,40.56
2017-12-23T02:51:45.649Z,26.20
2017-12-23T02:54:13.924Z,34.18
2017-12-23T02:56:42.161Z,30.26
2017-12-23T02:59:10.420Z,25.72
2017-12-23T03:01:38.698Z,26.66
2017-12-23T03:04:06.945Z,26.60
2017-12-23T03:06:35.231Z,23.30
2017-12-23T03:09:03.478Z,29.00
2017-12-23T03:11:32.219Z,26.12
2017-12-23T03:14:00.564Z,26.38
2017-12-23T03:16:28.780Z,25.78
2017-12-23T03:18:57.066Z,26.06
2017-12-23T03:21:25.312Z,24.86
2017-12-23T03:23:53.572Z,22.58
2017-12-23T03:26:21.853Z,28.48
2017-12-23T03:28:50.102Z,24.98
2017-12-23T03:31:18.393Z,29.26
2017-12-23T03:33:46.650Z,33.12
2017-12-23T03:36:14.913Z,26.66
2017-12-23T03:38:43.206Z,24.98
2017-12-23T03:41:11.459Z,26.32
2017-12-23T03:43:39.746Z,32.34
2017-12-23T03:46:08.009Z,39.32
2017-12-23T03:48:36.272Z,33.64
2017-12-23T03:51:04.542Z,31.06
2017-12-23T03:53:33.316Z,31.86
2017-12-23T03:56:02.574Z,38.18
2017-12-23T03:58:30.817Z,46.46
2017-12-23T04:00:59.098Z,32.38
2017-12-23T04:03:27.385Z,31.72
2017-12-23T04:05:55.667Z,32.50
2017-12-23T04:08:23.944Z,28.44
2017-12-23T04:10:52.229Z,37.76
2017-12-23T04:13:20.511Z,37.26
2017-12-23T04:15:48.757Z,33.72
2017-12-23T04:18:17.044Z,41.12
2017-12-23T04:20:45.337Z,47.30
2017-12-23T04:23:13.586Z,40.98
2017-12-23T04:25:41.826Z,40.16
2017-12-23T04:28:10.102Z,39.70
2017-12-23T04:30:38.363Z,45.46
2017-12-23T04:33:06.635Z,36.62
2017-12-23T04:35:34.891Z,39.82
2017-12-23T04:38:03.795Z,39.36
2017-12-23T04:40:32.902Z,36.20
2017-12-23T04:43:01.803Z,40.90
2017-12-23T04:45:30.060Z,46.40
2017-12-23T04:47:58.330Z,43.20
2017-12-23T04:50:28.607Z,49.50
2017-12-23T04:52:56.864Z,50.78
2017-12-23T04:55:25.106Z,54.60
2017-12-23T04:57:53.385Z,46.54
2017-12-23T05:00:21.628Z,60.86
2017-12-23T05:02:49.902Z,49.32
2017-12-23T05:05:18.142Z,49.14
2017-12-23T05:07:46.434Z,56.74
2017-12-23T05:10:15.610Z,58.60
2017-12-23T05:12:43.864Z,54.16
2017-12-23T05:15:12.144Z,43.26
2017-12-23T05:17:40.381Z,53.54
2017-12-23T05:20:08.676Z,63.00
2017-12-23T05:22:36.927Z,59.12
2017-12-23T05:25:05.184Z,65.36
2017-12-23T05:27:33.468Z,60.84
2017-12-23T05:30:03.776Z,56.12
2017-12-23T05:32:32.956Z,65.50
2017-12-23T05:35:02.019Z,50.84
2017-12-23T05:37:30.266Z,67.26
2017-12-23T05:39:58.553Z,51.78
2017-12-23T05:42:26.856Z,53.22
2017-12-23T05:44:55.116Z,59.28
2017-12-23T05:47:23.358Z,59.14
2017-12-23T05:49:51.657Z,63.66
2017-12-23T05:52:19.915Z,50.16
2017-12-23T05:54:48.178Z,53.16
2017-12-23T05:57:16.463Z,56.76
2017-12-23T05:59:44.752Z,50.78
2017-12-23T06:02:13.041Z,56.14
2017-12-23T06:04:41.297Z,57.70
2017-12-23T06:07:09.578Z,54.58
2017-12-23T06:09:37.868Z,59.08
2017-12-23T06:12:06.110Z,49.30
2017-12-23T06:14:33.617Z,47.40
2017-12-23T06:17:03.354Z,55.54
2017-12-23T06:19:32.891Z,53.42
2017-12-23T06:22:01.864Z,47.94
2017-12-23T06:24:30.153Z,49.54
2017-12-23T06:26:58.393Z,42.30
2017-12-23T06:29:26.652Z,50.58
2017-12-23T06:31:54.925Z,47.12
2017-12-23T06:34:23.188Z,37.74
2017-12-23T06:36:51.481Z,42.94
2017-12-23T06:39:19.746Z,43.66
2017-12-23T06:41:47.989Z,40.92
2017-12-23T06:44:16.280Z,42.38
2017-12-23T06:46:44.544Z,40.14
2017-12-23T06:49:12.832Z,42.58
2017-12-23T06:51:41.069Z,37.38
2017-12-23T06:54:09.377Z,44.96
2017-12-23T06:56:37.680Z,41.88
2017-12-23T06:59:05.937Z,49.20
2017-12-23T07:01:34.232Z,47.38
2017-12-23T07:04:03.520Z,48.54
2017-12-23T07:06:33.156Z,42.02
2017-12-23T07:09:02.051Z,53.78
2017-12-23T07:11:30.310Z,57.46
2017-12-23T07:13:58.595Z,45.18
2017-12-23T07:16:26.834Z,53.22
2017-12-23T07:18:55.110Z,59.74
2017-12-23T07:21:23.376Z,65.46
2017-12-23T07:23:51.664Z,57.72
2017-12-23T07:26:19.915Z,54.04
2017-12-23T07:28:47.389Z,61.36
2017-12-23T07:31:15.672Z,58.08
2017-12-23T07:33:43.962Z,61.62
2017-12-23T07:36:12.217Z,61.16
2017-12-23T07:38:40.477Z,56.66
2017-12-23T07:41:08.760Z,61.72
2017-12-23T07:43:37.024Z,69.64
2017-12-23T07:46:05.302Z,79.08
2017-12-23T07:48:33.545Z,70.00
2017-12-23T07:51:03.035Z,66.02
2017-12-23T07:53:31.751Z,80.82
2017-12-23T07:56:00.056Z,82.86
2017-12-23T07:58:28.322Z,79.36
2017-12-23T08:00:56.577Z,76.72
2017-12-23T08:03:24.853Z,88.22
2017-12-23T08:05:53.093Z,82.96
2017-12-23T08:08:21.388Z,84.18
2017-12-23T08:10:50.224Z,90.62
2017-12-23T08:13:18.485Z,92.62
2017-12-23T08:15:46.765Z,89.62
2017-12-23T08:18:15.039Z,97.70
2017-12-23T08:20:43.319Z,105.76
2017-12-23T08:23:11.603Z,77.80
2017-12-23T08:25:39.851Z,103.36
2017-12-23T08:28:08.118Z,96.54
2017-12-23T08:30:36.406Z,81.00
2017-12-23T08:33:04.674Z,78.52
2017-12-23T08:35:34.202Z,79.66
2017-12-23T08:38:03.024Z,69.82
2017-12-23T08:40:32.063Z,74.36
2017-12-23T08:43:00.315Z,70.58
2017-12-23T08:45:28.555Z,68.58
2017-12-23T08:47:56.844Z,64.52
2017-12-23T08:50:25.100Z,64.48
2017-12-23T08:52:53.391Z,63.82
2017-12-23T08:55:21.630Z,54.82
2017-12-23T08:57:49.883Z,60.96
2017-12-23T09:00:18.178Z,59.86
2017-12-23T09:02:46.426Z,54.66
2017-12-23T09:05:14.703Z,63.86
2017-12-23T09:07:42.986Z,67.30
2017-12-23T09:10:11.260Z,69.40
2017-12-23T09:12:39.508Z,63.44
2017-12-23T09:15:07.804Z,58.10
2017-12-23T09:17:36.061Z,55.64
2017-12-23T09:20:03.581Z,49.46
2017-12-23T09:22:33.280Z,51.66
2017-12-23T09:25:02.714Z,50.74
2017-12-23T09:27:30.995Z,46.88
2017-12-23T09:29:59.244Z,46.74
2017-12-23T09:32:27.540Z,49.12
2017-12-23T09:34:55.794Z,51.92
2017-12-23T09:37:24.065Z,49.82
2017-12-23T09:39:52.328Z,46.90
2017-12-23T09:42:20.624Z,52.98
2017-12-23T09:44:48.870Z,51.74
2017-12-23T09:47:17.136Z,47.08
2017-12-23T09:49:45.409Z,45.96
2017-12-23T09:52:13.699Z,44.84
2017-12-23T09:54:41.941Z,54.98
2017-12-23T09:57:10.219Z,48.72
2017-12-23T09:59:38.498Z,54.92
2017-12-23T10:02:06.752Z,49.36
2017-12-23T10:04:34.992Z,54.14
2017-12-23T10:07:04.693Z,47.62
2017-12-23T10:09:34.340Z,50.52
2017-12-23T10:12:03.430Z,50.06
2017-12-23T10:14:32.723Z,40.64
2017-12-23T10:17:01.010Z,49.38
2017-12-23T10:19:29.290Z,55.24
2017-12-23T10:21:57.569Z,51.42
2017-12-23T10:24:26.795Z,43.86
2017-12-23T10:26:55.056Z,40.38
2017-12-23T10:29:25.296Z,39.18
2017-12-23T10:31:53.681Z,45.22
2017-12-23T10:34:22.897Z,44.10
2017-12-23T10:36:51.151Z,40.90
2017-12-23T10:39:19.440Z,38.22
2017-12-23T10:41:47.701Z,40.56
2017-12-23T10:44:17.967Z,37.66
2017-12-23T10:46:46.206Z,39.24
2017-12-23T10:49:16.403Z,34.86
2017-12-23T10:51:44.680Z,37.32
2017-12-23T10:54:12.920Z,42.46
2017-12-23T10:56:41.208Z,38.98
2017-12-23T10:59:10.429Z,41.42
2017-12-23T11:01:38.696Z,46.56
2017-12-23T11:04:07.964Z,40.50
2017-12-23T11:06:36.252Z,42.98
2017-12-23T11:09:04.548Z,42.22
2017-12-23T11:11:33.334Z,39.14
2017-12-23T11:14:03.252Z,34.80
2017-12-23T11:16:32.199Z,33.52
2017-12-23T11:19:02.564Z,35.28
2017-12-23T11:21:30.854Z,28.42
2017-12-23T11:23:59.112Z,30.14
2017-12-23T11:26:27.368Z,33.44
2017-12-23T11:28:55.641Z,27.14
2017-12-23T11:31:23.941Z,28.84
2017-12-23T11:33:53.138Z,25.64
2017-12-23T11:36:21.401Z,31.76
2017-12-23T11:38:50.619Z,26.46
2017-12-23T11:41:18.866Z,28.52
2017-12-23T11:43:47.110Z,32.48
2017-12-23T11:46:15.405Z,27.04
2017-12-23T11:48:44.662Z,38.02
2017-12-23T11:51:12.952Z,34.50
2017-12-23T11:53:41.206Z,35.92
2017-12-23T11:56:09.480Z,36.62
2017-12-23T11:58:37.755Z,34.72
2017-12-23T12:01:06.021Z,34.64
2017-12-23T12:03:34.806Z,35.34
2017-12-23T12:06:03.850Z,32.40
2017-12-23T12:08:32.675Z,36.32
2017-12-23T12:11:00.971Z,38.88
2017-12-23T12:13:29.205Z,35.08
2017-12-23T12:15:58.460Z,37.14
2017-12-23T12:18:26.729Z,42.38
2017-12-23T12:20:56.047Z,36.00
2017-12-23T12:23:24.330Z,40.82
2017-12-23T12:25:53.586Z,39.56
2017-12-23T12:28:21.848Z,36.62
2017-12-23T12:30:52.188Z,33.62
2017-12-23T12:33:20.433Z,36.18
2017-12-23T12:35:49.730Z,34.60
2017-12-23T12:38:17.985Z,36.30
2017-12-23T12:40:46.230Z,38.76
2017-12-23T12:43:14.529Z,34.16
2017-12-23T12:45:44.857Z,36.80
2017-12-23T12:48:13.156Z,34.66
2017-12-23T12:50:41.408Z,38.40
2017-12-23T12:53:09.664Z,34.40
2017-12-23T12:55:37.952Z,41.02
2017-12-23T12:58:06.207Z,36.30
2017-12-23T13:00:33.926Z,36.12
2017-12-23T13:03:02.579Z,39.90
2017-12-23T13:05:32.829Z,39.10
2017-12-23T13:08:02.399Z,40.78
2017-12-23T13:10:33.818Z,35.74
2017-12-23T13:13:02.611Z,38.44
2017-12-23T13:15:32.797Z,39.82
2017-12-23T13:18:01.038Z,38.52
2017-12-23T13:20:29.393Z,35.72
2017-12-23T13:22:57.657Z,37.58
2017-12-23T13:25:25.986Z,37.74
2017-12-23T13:27:54.256Z,43.48
2017-12-23T13:30:22.520Z,42.94
2017-12-23T13:32:50.793Z,44.84
2017-12-23T13:35:21.054Z,45.72
2017-12-23T13:37:49.318Z,44.92
2017-12-23T13:40:17.615Z,53.12
2017-12-23T13:42:45.894Z,47.80
2017-12-23T13:45:14.136Z,46.76
2017-12-23T13:47:41.643Z,49.76
2017-12-23T13:50:09.876Z,41.82
2017-12-23T13:52:39.202Z,52.76
2017-12-23T13:55:07.464Z,49.50
2017-12-23T13:57:36.750Z,49.58
2017-12-23T14:00:05.040Z,49.58
2017-12-23T14:02:34.845Z,59.64
2017-12-23T14:05:03.860Z,46.02
2017-12-23T14:07:32.658Z,50.68
2017-12-23T14:10:00.946Z,52.16
2017-12-23T14:12:29.199Z,46.60
2017-12-23T14:14:57.520Z,38.78
2017-12-23T14:17:25.845Z,53.68
2017-12-23T14:19:54.094Z,49.30
2017-12-23T14:22:22.343Z,44.38
2017-12-23T14:24:50.608Z,51.92
2017-12-23T14:27:18.860Z,46.92
2017-12-23T14:29:47.128Z,40.72
2017-12-23T14:32:15.464Z,42.22
2017-12-23T14:34:43.784Z,45.04
2017-12-23T14:37:11.985Z,39.62
2017-12-23T14:39:40.244Z,42.72
2017-12-23T14:42:09.540Z,43.04
2017-12-23T14:44:37.843Z,37.12
2017-12-23T14:47:06.102Z,36.52
2017-12-23T14:49:34.354Z,37.02
2017-12-23T14:52:03.326Z,33.32
2017-12-23T14:54:32.268Z,35.32
2017-12-23T14:57:00.501Z,29.28
2017-12-23T14:59:28.793Z,29.88
2017-12-23T15:01:57.052Z,31.38
2017-12-23T15:04:25.338Z,29.78
2017-12-23T15:06:53.593Z,30.22
2017-12-23T15:09:21.119Z,28.64
2017-12-23T15:11:49.436Z,28.94
2017-12-23T15:14:17.688Z,27.80
2017-12-23T15:16:45.980Z,32.68
2017-12-23T15:19:14.253Z,34.58
2017-12-23T15:21:42.507Z,28.62
2017-12-23T15:24:10.750Z,31.94
2017-12-23T15:26:39.048Z,32.40
2017-12-23T15:29:07.308Z,28.58
2017-12-23T15:31:35.567Z,33.14
2017-12-23T15:34:03.837Z,29.38
2017-12-23T15:36:33.032Z,29.02
2017-12-23T15:39:01.309Z,24.18
2017-12-23T15:41:29.642Z,29.32
2017-12-23T15:43:57.160Z,26.58
2017-12-23T15:46:25.474Z,25.36
2017-12-23T15:48:52.946Z,26.88
2017-12-23T15:51:21.224Z,22.34
2017-12-23T15:53:49.493Z,21.12
2017-12-23T15:56:17.780Z,24.40
2017-12-23T15:58:46.069Z,20.14
2017-12-23T16:01:14.358Z,24.90
2017-12-23T16:03:42.663Z,21.66
2017-12-23T16:06:10.951Z,22.00
2017-12-23T16:08:39.235Z,21.62
2017-12-23T16:11:07.510Z,21.68
2017-12-23T16:13:35.795Z,20.40
2017-12-23T16:16:04.070Z,26.02
2017-12-23T16:18:32.209Z,22.24
2017-12-23T16:21:00.494Z,25.24
2017-12-23T16:23:28.738Z,26.00
2017-12-23T16:25:56.996Z,28.68
2017-12-23T16:28:25.324Z,26.72
2017-12-23T16:30:53.557Z,23.08
2017-12-23T16:33:21.840Z,30.74
2017-12-23T16:35:50.114Z,21.62
2017-12-23T16:38:18.362Z,24.54
2017-12-23T16:40:46.648Z,23.32
2017-12-23T16:43:14.935Z,27.42
2017-12-23T16:45:43.222Z,25.96
2017-12-23T16:48:11.513Z,24.04
2017-12-23T16:50:39.850Z,24.92
2017-12-23T16:53:08.173Z,26.30
2017-12-23T16:55:36.441Z,24.30
2017-12-23T16:58:04.708Z,24.40
2017-12-23T17:00:34.140Z,25.46
2017-12-23T17:03:02.378Z,28.68
2017-12-23T17:05:30.642Z,25.00
2017-12-23T17:07:58.918Z,27.98
2017-12-23T17:10:27.212Z,27.26
2017-12-23T17:12:55.523Z,24.80
2017-12-23T17:15:23.825Z,25.36
2017-12-23T17:17:51.426Z,27.64
2017-12-23T17:20:19.720Z,26.74
2017-12-23T17:22:47.996Z,30.14
2017-12-23T17:25:16.308Z,28.80
2017-12-23T17:27:44.558Z,28.74
2017-12-23T17:30:23.926Z,27.18
2017-12-23T17:32:52.225Z,25.32
2017-12-23T17:35:20.507Z,29.08
2017-12-23T17:37:48.759Z,27.08
2017-12-23T17:40:17.067Z,31.88
2017-12-23T17:42:45.350Z,29.26
2017-12-23T17:45:13.602Z,27.86
2017-12-23T17:47:41.078Z,29.02
2017-12-23T17:50:09.406Z,27.04
2017-12-23T17:52:37.688Z,26.34
2017-12-23T17:55:06.039Z,27.34
2017-12-23T17:57:34.286Z,26.90
2017-12-23T18:00:03.229Z,27.56
2017-12-23T18:02:32.563Z,27.28
2017-12-23T18:05:00.875Z,26.28
2017-12-23T18:07:29.197Z,26.04
2017-12-23T18:09:57.496Z,27.10
2017-12-23T18:12:25.832Z,29.84
2017-12-23T18:14:54.120Z,28.36
2017-12-23T18:17:21.690Z,27.64
2017-12-23T18:19:49.952Z,29.58
2017-12-23T18:22:18.253Z,33.70
2017-12-23T18:24:46.500Z,26.94
2017-12-23T18:27:14.787Z,26.24
2017-12-23T18:29:43.114Z,28.52
2017-12-23T18:32:11.424Z,28.64
2017-12-23T18:34:39.732Z,26.20
2017-12-23T18:37:08.043Z,26.30
2017-12-23T18:39:36.340Z,29.58
2017-12-23T18:42:04.679Z,25.80
2017-12-23T18:44:33.745Z,27.24
2017-12-23T18:47:02.995Z,29.02
2017-12-23T18:49:31.833Z,27.26
2017-12-23T18:52:00.143Z,28.18
2017-12-23T18:54:28.503Z,28.52
2017-12-23T18:56:56.803Z,28.32
2017-12-23T18:59:25.114Z,26.86
2017-12-23T19:01:53.444Z,27.22
2017-12-23T19:04:21.708Z,29.90
2017-12-23T19:06:50.022Z,28.64
2017-12-23T19:09:18.345Z,31.84
2017-12-23T19:11:46.597Z,28.36
2017-12-23T19:14:14.937Z,27.10
2017-12-23T19:16:54.042Z,27.80
2017-12-23T19:19:22.387Z,27.38
2017-12-23T19:21:50.688Z,30.58
2017-12-23T19:24:19.016Z,27.50
2017-12-23T19:26:47.346Z,28.74
2017-12-23T19:29:15.639Z,27.28
2017-12-23T19:31:43.972Z,26.22
2017-12-23T19:34:12.288Z,28.10
2017-12-23T19:36:40.599Z,26.96
2017-12-23T19:39:08.945Z,32.36
2017-12-23T19:41:37.250Z,30.32
2017-12-23T19:44:05.579Z,27.38
2017-12-23T19:46:33.863Z,26.70
2017-12-23T19:49:03.170Z,25.82
2017-12-23T19:51:32.628Z,28.92
2017-12-23T19:54:00.916Z,23.18
2017-12-23T19:56:29.226Z,31.34
2017-12-23T19:58:57.513Z,24.24
2017-12-23T20:01:25.801Z,21.08
2017-12-23T20:03:54.097Z,22.32
2017-12-23T20:06:21.682Z,20.26
2017-12-23T20:08:49.994Z,21.08
2017-12-23T20:11:18.303Z,20.26
2017-12-23T20:13:46.647Z,22.04
2017-12-23T20:16:15.011Z,21.62
2017-12-23T20:18:43.320Z,23.06
2017-12-23T20:21:11.624Z,23.96
2017-12-23T20:23:39.962Z,23.30
2017-12-23T20:26:07.509Z,21.88
2017-12-23T20:28:35.845Z,25.54
2017-12-23T20:31:04.178Z,23.06
2017-12-23T20:33:33.606Z,23.04
2017-12-23T20:36:03.226Z,20.12
2017-12-23T20:38:30.723Z,21.20
2017-12-23T20:40:59.071Z,20.20
2017-12-23T20:43:27.402Z,19.88
2017-12-23T20:45:55.705Z,23.56
2017-12-23T20:48:24.044Z,22.38
2017-12-23T20:50:52.286Z,23.04
2017-12-23T20:53:20.624Z,23.70
2017-12-23T20:55:48.935Z,27.72
2017-12-23T20:58:17.234Z,24.34
2017-12-23T21:00:45.561Z,25.88
2017-12-23T21:03:13.889Z,23.48
2017-12-23T21:05:42.203Z,24.88
2017-12-23T21:08:10.494Z,28.94
2017-12-23T21:10:38.792Z,26.52
2017-12-23T21:13:07.088Z,29.38
2017-12-23T21:15:35.478Z,32.14
2017-12-23T21:18:03.982Z,26.80
2017-12-23T21:20:32.272Z,32.52
2017-12-23T21:23:00.603Z,33.98
2017-12-23T21:25:28.914Z,29.30
2017-12-23T21:27:57.241Z,30.34
2017-12-23T21:30:25.582Z,27.28
2017-12-23T21:32:53.885Z,32.92
2017-12-23T21:35:22.184Z,30.56
2017-12-23T21:37:50.521Z,29.62
2017-12-23T21:40:18.825Z,29.54
2017-12-23T21:42:47.111Z,29.84
2017-12-23T21:45:15.441Z,28.32
2017-12-23T21:47:43.752Z,30.12
2017-12-23T21:50:12.083Z,25.10
2017-12-23T21:52:40.386Z,27.34
2017-12-23T21:55:08.723Z,25.46
2017-12-23T21:57:37.024Z,27.52
2017-12-23T22:00:05.364Z,23.56
2017-12-23T22:02:34.041Z,28.36
2017-12-23T22:05:02.348Z,24.32
2017-12-23T22:07:30.692Z,26.52
2017-12-23T22:09:58.986Z,24.88
2017-12-23T22:12:27.313Z,26.54
2017-12-23T22:14:55.651Z,23.62
2017-12-23T22:17:23.949Z,22.50
2017-12-23T22:19:51.521Z,23.30
2017-12-23T22:22:19.874Z,20.10
2017-12-23T22:24:48.069Z,20.50
2017-12-23T22:27:16.405Z,21.48
2017-12-23T22:29:44.701Z,19.20
2017-12-23T22:32:12.988Z,20.78
2017-12-23T22:34:41.310Z,18.64
2017-12-23T22:37:09.601Z,18.12
2017-12-23T22:39:37.920Z,16.70
2017-12-23T22:42:06.204Z,20.70
2017-12-23T22:44:34.519Z,21.16
2017-12-23T22:47:03.441Z,15.52
2017-12-23T22:49:32.246Z,20.00
2017-12-23T22:52:00.547Z,17.10
2017-12-23T22:54:28.874Z,16.68
2017-12-23T22:56:57.223Z,17.72
2017-12-23T22:59:25.526Z,18.88
2017-12-23T23:01:53.830Z,18.72
2017-12-23T23:04:22.164Z,24.48
2017-12-23T23:06:50.493Z,21.42
2017-12-23T23:09:18.789Z,22.12
2017-12-23T23:11:47.095Z,16.44
2017-12-23T23:14:15.397Z,18.74
2017-12-23T23:16:43.730Z,15.48
2017-12-23T23:19:12.060Z,18.48
2017-12-23T23:21:40.376Z,17.94
2017-12-23T23:24:08.673Z,19.48
2017-12-23T23:26:36.964Z,18.96
2017-12-23T23:29:04.528Z,22.36
2017-12-23T23:31:33.639Z,23.82
2017-12-23T23:34:02.566Z,21.38
2017-12-23T23:36:30.842Z,21.16
2017-12-23T23:38:59.173Z,17.32
2017-12-23T23:41:27.493Z,19.56
2017-12-23T23:43:55.742Z,18.82
2017-12-23T23:46:24.015Z,17.60
2017-12-23T23:48:52.249Z,17.40
2017-12-23T23:51:20.543Z,16.70
2017-12-23T23:53:48.023Z,18.84
2017-12-23T23:56:16.266Z,19.00
2017-12-23T23:58:44.552Z,16.64
